createdAt,value
2022-08-02T00:01:22.939Z,21.08
2022-08-02T00:03:51.031Z,21.10
2022-08-02T00:06:19.165Z,21.14
2022-08-02T00:08:47.428Z,21.05
2022-08-02T00:11:15.466Z,20.93
2022-08-02T00:13:43.539Z,20.93
2022-08-02T00:16:16.948Z,20.89
2022-08-02T00:18:45.158Z,20.83
2022-08-02T00:21:13.251Z,20.79
2022-08-02T00:24:03.287Z,20.82
2022-08-02T00:26:30.122Z,20.79
2022-08-02T00:28:58.177Z,20.73
2022-08-02T00:31:27.601Z,20.69
2022-08-02T00:34:26.846Z,20.58
2022-08-02T00:36:43.957Z,20.43
2022-08-02T00:39:33.592Z,20.36
2022-08-02T00:41:59.983Z,20.35
2022-08-02T00:44:28.005Z,20.34
2022-08-02T00:46:57.514Z,20.32
2022-08-02T00:49:25.596Z,20.30
2022-08-02T00:51:54.157Z,20.29
2022-08-02T00:54:22.283Z,20.22
2022-08-02T00:56:51.157Z,20.21
2022-08-02T00:59:19.962Z,20.10
2022-08-02T01:01:56.261Z,20.04
2022-08-02T01:04:31.134Z,19.96
2022-08-02T01:07:01.234Z,19.87
2022-08-02T01:09:29.646Z,19.80
2022-08-02T01:11:57.709Z,19.75
2022-08-02T01:14:31.145Z,19.79
2022-08-02T01:17:08.140Z,19.79
2022-08-02T01:19:41.646Z,19.75
2022-08-02T01:23:00.455Z,19.80
2022-08-02T01:25:44.673Z,19.76
2022-08-02T01:28:29.593Z,19.74
2022-08-02T01:31:02.341Z,19.69
2022-08-02T01:33:36.700Z,19.74
2022-08-02T01:36:07.358Z,19.72
2022-08-02T01:38:40.132Z,19.76
2022-08-02T01:41:11.071Z,19.87
2022-08-02T01:43:41.466Z,19.86
2022-08-02T01:46:12.387Z,19.75
2022-08-02T01:48:42.451Z,19.73
2022-08-02T01:51:13.448Z,19.88
2022-08-02T01:53:45.174Z,20.00
2022-08-02T01:56:15.693Z,20.11
2022-08-02T01:58:46.799Z,20.18
2022-08-02T02:01:18.663Z,20.20
2022-08-02T02:03:49.170Z,20.22
2022-08-02T02:06:19.516Z,20.25
2022-08-02T02:08:50.229Z,20.18
2022-08-02T02:12:06.569Z,20.07
2022-08-02T02:14:10.846Z,19.95
2022-08-02T02:16:41.109Z,19.96
2022-08-02T02:19:10.535Z,19.84
2022-08-02T02:21:38.899Z,19.76
2022-08-02T02:24:11.747Z,19.72
2022-08-02T02:26:46.445Z,19.69
2022-08-02T02:29:23.385Z,19.64
2022-08-02T02:31:55.169Z,19.62
2022-08-02T02:34:27.849Z,19.60
2022-08-02T02:36:59.598Z,19.47
2022-08-02T02:39:29.028Z,19.46
2022-08-02T02:41:59.226Z,19.49
2022-08-02T02:44:30.682Z,19.43
2022-08-02T02:47:01.054Z,19.40
2022-08-02T02:49:33.164Z,19.41
2022-08-02T02:52:01.925Z,19.40
2022-08-02T02:54:34.879Z,19.50
2022-08-02T02:57:05.602Z,19.52
2022-08-02T02:59:35.937Z,19.61
2022-08-02T03:02:05.889Z,19.70
2022-08-02T03:04:36.128Z,19.71
2022-08-02T03:07:23.322Z,19.70
2022-08-02T03:09:54.426Z,19.74
2022-08-02T03:12:31.914Z,19.78
2022-08-02T03:15:04.286Z,19.86
2022-08-02T03:17:46.351Z,19.92
2022-08-02T03:20:16.218Z,19.92
2022-08-02T03:22:44.979Z,19.91
2022-08-02T03:25:14.288Z,19.93
2022-08-02T03:27:42.527Z,19.95
2022-08-02T03:30:14.276Z,20.06
2022-08-02T03:32:44.763Z,20.07
2022-08-02T03:35:17.593Z,20.19
2022-08-02T03:37:53.336Z,20.19
2022-08-02T03:40:22.095Z,20.23
2022-08-02T03:42:50.898Z,20.32
2022-08-02T03:45:21.248Z,20.35
2022-08-02T03:47:50.074Z,20.48
2022-08-02T03:50:18.436Z,20.43
2022-08-02T03:52:47.090Z,20.39
2022-08-02T03:55:15.758Z,20.53
2022-08-02T03:57:44.484Z,20.54
2022-08-02T04:00:18.649Z,20.73
2022-08-02T04:02:48.795Z,20.79
2022-08-02T04:05:16.871Z,21.09
2022-08-02T04:08:33.316Z,21.11
2022-08-02T04:10:54.778Z,21.24
2022-08-02T04:13:27.443Z,21.35
2022-08-02T04:16:04.213Z,21.54
2022-08-02T04:18:40.494Z,21.65
2022-08-02T04:21:12.722Z,21.72
2022-08-02T04:23:43.566Z,21.93
2022-08-02T04:26:12.565Z,22.04
2022-08-02T04:28:42.595Z,22.22
2022-08-02T04:31:11.088Z,22.35
2022-08-02T04:33:41.142Z,22.54
2022-08-02T04:36:10.798Z,22.71
2022-08-02T04:38:38.948Z,22.87
2022-08-02T04:41:06.965Z,22.96
2022-08-02T04:43:35.591Z,23.04
2022-08-02T04:46:04.932Z,23.18
2022-08-02T04:48:33.018Z,23.30
2022-08-02T04:51:02.432Z,23.50
2022-08-02T04:53:30.406Z,23.55
2022-08-02T04:55:58.450Z,23.63
2022-08-02T04:58:41.759Z,23.64
2022-08-02T05:01:09.838Z,23.97
2022-08-02T05:03:37.893Z,24.08
2022-08-02T05:06:07.691Z,24.32
2022-08-02T05:08:52.402Z,24.46
2022-08-02T05:11:21.563Z,24.52
2022-08-02T05:13:57.685Z,24.62
2022-08-02T05:16:31.641Z,24.76
2022-08-02T05:19:00.162Z,24.89
2022-08-02T05:21:29.686Z,24.37
2022-08-02T05:23:57.706Z,24.53
2022-08-02T05:26:25.743Z,24.56
2022-08-02T05:28:53.779Z,24.91
2022-08-02T05:31:22.246Z,25.14
2022-08-02T05:33:50.317Z,24.94
2022-08-02T05:36:18.415Z,25.11
2022-08-02T05:38:52.966Z,25.31
2022-08-02T05:41:27.770Z,25.62
2022-08-02T05:43:55.816Z,25.81
2022-08-02T05:46:24.341Z,25.76
2022-08-02T05:48:52.458Z,25.84
2022-08-02T05:51:24.581Z,26.04
2022-08-02T05:54:02.673Z,26.33
2022-08-02T05:56:35.915Z,26.57
2022-08-02T05:59:06.262Z,26.57
2022-08-02T06:01:37.850Z,26.79
2022-08-02T06:04:08.379Z,26.76
2022-08-02T06:06:37.361Z,27.15
2022-08-02T06:09:12.036Z,27.17
2022-08-02T06:12:01.802Z,27.56
2022-08-02T06:14:32.569Z,27.14
2022-08-02T06:17:01.977Z,27.42
2022-08-02T06:19:36.563Z,27.38
2022-08-02T06:22:35.416Z,27.37
2022-08-02T06:25:11.772Z,27.75
2022-08-02T06:28:00.106Z,27.82
2022-08-02T06:30:28.969Z,27.90
2022-08-02T06:32:57.606Z,28.00
2022-08-02T06:35:29.442Z,28.18
2022-08-02T06:38:01.967Z,28.50
2022-08-02T06:40:37.072Z,28.84
2022-08-02T06:43:13.788Z,28.84
2022-08-02T06:45:42.173Z,28.74
2022-08-02T06:48:10.935Z,28.98
2022-08-02T06:50:39.852Z,29.09
2022-08-02T06:53:08.901Z,29.49
2022-08-02T06:55:43.930Z,29.61
2022-08-02T06:58:12.972Z,29.75
2022-08-02T07:00:41.332Z,30.04
2022-08-02T07:03:09.388Z,30.07
2022-08-02T07:05:37.504Z,30.03
2022-08-02T07:08:06.300Z,30.20
2022-08-02T07:10:34.331Z,30.03
2022-08-02T07:13:03.654Z,30.28
2022-08-02T07:15:31.726Z,30.29
2022-08-02T07:18:00.648Z,30.39
2022-08-02T07:20:28.862Z,30.32
2022-08-02T07:22:56.890Z,30.42
2022-08-02T07:25:25.413Z,30.55
2022-08-02T07:28:20.822Z,30.31
2022-08-02T07:30:51.893Z,30.11
2022-08-02T07:33:37.505Z,30.13
2022-08-02T07:36:08.875Z,30.13
2022-08-02T07:38:38.008Z,30.62
2022-08-02T07:41:06.098Z,30.59
2022-08-02T07:43:35.482Z,31.02
2022-08-02T07:46:03.490Z,31.29
2022-08-02T07:48:31.535Z,31.59
2022-08-02T07:50:59.546Z,31.38
2022-08-02T07:53:30.669Z,31.41
2022-08-02T07:56:15.582Z,31.39
2022-08-02T07:58:45.339Z,31.55
2022-08-02T08:01:13.457Z,32.05
2022-08-02T08:03:41.517Z,32.20
2022-08-02T08:06:09.535Z,31.62
2022-08-02T08:08:56.997Z,30.97
2022-08-02T08:11:25.170Z,30.07
2022-08-02T08:13:54.576Z,30.38
2022-08-02T08:16:22.627Z,30.59
2022-08-02T08:18:50.652Z,30.80
2022-08-02T08:21:18.625Z,30.73
2022-08-02T08:23:46.769Z,30.68
2022-08-02T08:26:15.850Z,30.74
2022-08-02T08:28:44.047Z,30.46
2022-08-02T08:31:13.458Z,30.48
2022-08-02T08:33:41.511Z,30.79
2022-08-02T08:36:09.554Z,30.86
2022-08-02T08:38:37.598Z,30.83
2022-08-02T08:41:05.731Z,30.92
2022-08-02T08:43:36.398Z,31.24
2022-08-02T08:46:04.782Z,31.66
2022-08-02T08:48:39.306Z,31.88
2022-08-02T08:51:11.851Z,32.22
2022-08-02T08:53:44.488Z,32.33
2022-08-02T08:56:16.457Z,32.60
2022-08-02T08:58:45.330Z,32.81
2022-08-02T09:01:15.203Z,32.40
2022-08-02T09:03:46.378Z,32.21
2022-08-02T09:06:14.400Z,31.99
2022-08-02T09:08:42.417Z,31.91
2022-08-02T09:11:15.841Z,31.95
2022-08-02T09:13:52.059Z,32.09
2022-08-02T09:16:30.567Z,32.36
2022-08-02T09:19:01.626Z,32.43
2022-08-02T09:21:37.657Z,32.23
2022-08-02T09:24:17.806Z,32.41
2022-08-02T09:26:46.298Z,32.61
2022-08-02T09:29:15.051Z,32.74
2022-08-02T09:31:45.711Z,32.90
2022-08-02T09:34:20.386Z,33.27
2022-08-02T09:36:54.363Z,32.99
2022-08-02T09:39:23.935Z,32.88
2022-08-02T09:41:52.087Z,32.62
2022-08-02T09:44:20.638Z,32.52
2022-08-02T09:46:48.741Z,32.32
2022-08-02T09:49:18.289Z,32.42
2022-08-02T09:51:52.959Z,32.31
2022-08-02T09:54:24.436Z,32.63
2022-08-02T09:56:55.055Z,32.75
2022-08-02T09:59:25.176Z,32.68
2022-08-02T10:02:02.060Z,32.90
2022-08-02T10:04:34.470Z,32.93
2022-08-02T10:07:22.749Z,33.05
2022-08-02T10:09:51.525Z,32.98
2022-08-02T10:12:22.598Z,33.04
2022-08-02T10:14:53.012Z,32.85
2022-08-02T10:17:22.274Z,32.70
2022-08-02T10:20:00.976Z,33.17
2022-08-02T10:22:35.020Z,33.29
2022-08-02T10:25:05.435Z,33.34
2022-08-02T10:27:49.273Z,33.68
2022-08-02T10:30:24.345Z,33.69
2022-08-02T10:32:55.189Z,33.67
2022-08-02T10:35:26.844Z,33.26
2022-08-02T10:37:58.373Z,33.27
2022-08-02T10:40:27.455Z,33.53
2022-08-02T10:43:00.613Z,33.02
2022-08-02T10:45:29.685Z,33.34
2022-08-02T10:47:59.854Z,33.71
2022-08-02T10:50:54.053Z,33.92
2022-08-02T10:53:29.312Z,34.23
2022-08-02T10:55:59.175Z,34.19
2022-08-02T10:58:30.294Z,34.34
2022-08-02T11:00:59.570Z,34.59
2022-08-02T11:03:40.801Z,34.26
2022-08-02T11:06:25.423Z,33.85
2022-08-02T11:09:27.046Z,33.30
2022-08-02T11:12:07.185Z,33.12
2022-08-02T11:14:36.810Z,32.86
2022-08-02T11:17:14.360Z,33.24
2022-08-02T11:20:16.926Z,33.39
2022-08-02T11:22:46.257Z,33.45
2022-08-02T11:26:02.828Z,33.59
2022-08-02T11:28:26.829Z,33.58
2022-08-02T11:30:59.008Z,33.62
2022-08-02T11:33:32.299Z,33.46
2022-08-02T11:36:05.946Z,33.23
2022-08-02T11:38:34.530Z,32.70
2022-08-02T11:41:06.109Z,32.46
2022-08-02T11:43:40.000Z,32.38
2022-08-02T11:46:14.752Z,32.31
2022-08-02T11:48:44.338Z,32.34
2022-08-02T11:51:14.220Z,32.18
2022-08-02T11:53:47.478Z,32.19
2022-08-02T11:56:24.912Z,32.18
2022-08-02T11:59:05.501Z,32.24
2022-08-02T12:01:36.799Z,32.70
2022-08-02T12:04:22.801Z,32.48
2022-08-02T12:07:01.956Z,32.59
2022-08-02T12:09:41.082Z,32.53
2022-08-02T12:12:09.893Z,32.62
2022-08-02T12:14:44.930Z,32.75
2022-08-02T12:17:30.712Z,32.51
2022-08-02T12:19:58.850Z,32.55
2022-08-02T12:22:28.734Z,32.61
2022-08-02T12:24:58.681Z,32.41
2022-08-02T12:27:35.476Z,32.11
2022-08-02T12:30:07.934Z,32.42
2022-08-02T12:32:36.723Z,32.54
2022-08-02T12:35:11.022Z,32.58
2022-08-02T12:37:41.537Z,32.31
2022-08-02T12:40:20.881Z,32.47
2022-08-02T12:42:55.968Z,32.45
2022-08-02T12:45:27.071Z,32.16
2022-08-02T12:48:07.582Z,32.41
2022-08-02T12:50:37.682Z,32.38
2022-08-02T12:53:08.465Z,32.71
2022-08-02T12:56:02.158Z,32.64
2022-08-02T12:58:29.203Z,32.63
2022-08-02T13:01:00.203Z,32.59
2022-08-02T13:04:11.065Z,32.69
2022-08-02T13:06:43.293Z,32.52
2022-08-02T13:09:15.279Z,32.79
2022-08-02T13:11:44.292Z,32.74
2022-08-02T13:14:13.165Z,32.64
2022-08-02T13:16:44.353Z,32.56
2022-08-02T13:19:13.225Z,32.47
2022-08-02T13:22:01.043Z,32.00
2022-08-02T13:24:40.054Z,32.18
2022-08-02T13:27:17.562Z,32.14
2022-08-02T13:29:45.835Z,32.18
2022-08-02T13:32:15.844Z,32.04
2022-08-02T13:34:44.260Z,32.12
2022-08-02T13:37:12.603Z,32.12
2022-08-02T13:39:40.747Z,31.87
2022-08-02T13:42:16.822Z,32.01
2022-08-02T13:44:45.587Z,32.16
2022-08-02T13:47:15.111Z,32.06
2022-08-02T13:50:03.334Z,31.99
2022-08-02T13:52:31.479Z,32.07
2022-08-02T13:54:59.646Z,32.12
2022-08-02T13:57:27.760Z,32.04
2022-08-02T13:59:59.178Z,32.19
2022-08-02T14:02:29.263Z,32.30
2022-08-02T14:04:58.034Z,32.33
2022-08-02T14:07:26.219Z,32.40
2022-08-02T14:09:54.395Z,32.29
2022-08-02T14:12:22.493Z,32.29
2022-08-02T14:14:50.847Z,32.15
2022-08-02T14:17:20.059Z,31.68
2022-08-02T14:19:50.895Z,31.74
2022-08-02T14:22:19.010Z,31.88
2022-08-02T14:24:47.181Z,31.85
2022-08-02T14:27:15.965Z,31.86
2022-08-02T14:29:44.179Z,31.84
2022-08-02T14:32:12.526Z,31.72
2022-08-02T14:34:40.843Z,31.78
2022-08-02T14:37:10.494Z,31.80
2022-08-02T14:39:43.600Z,31.89
2022-08-02T14:42:26.763Z,31.82
2022-08-02T14:44:54.917Z,31.78
2022-08-02T14:47:23.027Z,31.79
2022-08-02T14:49:51.191Z,31.75
2022-08-02T14:52:21.256Z,31.71
2022-08-02T14:54:49.368Z,31.68
2022-08-02T14:57:17.806Z,31.71
2022-08-02T14:59:45.955Z,31.69
2022-08-02T15:02:14.857Z,31.59
2022-08-02T15:04:44.062Z,30.85
2022-08-02T15:07:13.154Z,31.18
2022-08-02T15:09:42.726Z,31.15
2022-08-02T15:12:12.248Z,30.85
2022-08-02T15:14:41.681Z,30.75
2022-08-02T15:17:10.234Z,30.79
2022-08-02T15:19:57.285Z,30.73
2022-08-02T15:22:26.727Z,30.52
2022-08-02T15:24:56.240Z,30.54
2022-08-02T15:27:24.715Z,30.57
2022-08-02T15:29:59.879Z,30.58
2022-08-02T15:32:28.351Z,30.50
2022-08-02T15:34:57.328Z,30.35
2022-08-02T15:37:26.066Z,30.37
2022-08-02T15:40:00.920Z,30.20
2022-08-02T15:42:30.614Z,30.22
2022-08-02T15:44:59.718Z,30.33
2022-08-02T15:47:28.002Z,30.19
2022-08-02T15:49:56.126Z,30.14
2022-08-02T15:52:26.779Z,30.03
2022-08-02T15:54:54.977Z,30.04
2022-08-02T15:57:24.744Z,30.13
2022-08-02T15:59:54.252Z,30.10
2022-08-02T16:02:22.939Z,30.11
2022-08-02T16:04:51.374Z,30.10
2022-08-02T16:07:19.569Z,30.02
2022-08-02T16:09:47.664Z,29.89
2022-08-02T16:12:16.243Z,29.93
2022-08-02T16:14:46.932Z,30.00
2022-08-02T16:17:15.078Z,29.91
2022-08-02T16:20:03.471Z,29.89
2022-08-02T16:22:31.646Z,29.78
2022-08-02T16:24:59.790Z,29.60
2022-08-02T16:27:27.893Z,29.43
2022-08-02T16:29:57.419Z,29.49
2022-08-02T16:32:25.556Z,29.51
2022-08-02T16:35:07.784Z,29.37
2022-08-02T16:37:51.889Z,29.05
2022-08-02T16:40:21.234Z,29.01
2022-08-02T16:42:50.884Z,28.86
2022-08-02T16:45:22.391Z,29.04
2022-08-02T16:47:57.357Z,29.05
2022-08-02T16:50:28.157Z,29.10
2022-08-02T16:52:58.403Z,29.17
2022-08-02T16:55:30.501Z,29.14
2022-08-02T16:57:59.314Z,29.07
2022-08-02T17:00:29.189Z,29.15
2022-08-02T17:02:59.621Z,29.11
2022-08-02T17:05:29.913Z,29.08
2022-08-02T17:08:17.166Z,29.02
2022-08-02T17:10:46.220Z,28.96
2022-08-02T17:13:14.459Z,28.88
2022-08-02T17:16:16.233Z,28.83
2022-08-02T17:18:34.423Z,28.74
2022-08-02T17:21:10.663Z,28.64
2022-08-02T17:24:04.418Z,28.47
2022-08-02T17:26:28.599Z,28.33
2022-08-02T17:29:14.167Z,28.31
2022-08-02T17:32:05.874Z,28.26
2022-08-02T17:34:36.090Z,28.15
2022-08-02T17:37:05.594Z,28.05
2022-08-02T17:39:44.248Z,27.95
2022-08-02T17:42:20.210Z,27.85
2022-08-02T17:44:52.261Z,27.78
2022-08-02T17:47:22.257Z,27.66
2022-08-02T17:49:52.598Z,27.57
2022-08-02T17:52:50.558Z,27.49
2022-08-02T17:55:14.200Z,27.38
2022-08-02T17:57:57.319Z,27.25
2022-08-02T18:00:33.774Z,27.19
2022-08-02T18:03:05.433Z,27.08
2022-08-02T18:05:39.408Z,26.98
2022-08-02T18:08:18.467Z,26.86
2022-08-02T18:10:49.666Z,26.77
2022-08-02T18:13:17.690Z,26.66
2022-08-02T18:15:45.962Z,26.59
2022-08-02T18:18:17.014Z,26.51
2022-08-02T18:20:47.572Z,26.45
2022-08-02T18:23:15.919Z,26.42
2022-08-02T18:25:46.919Z,26.30
2022-08-02T18:28:17.503Z,26.17
2022-08-02T18:30:45.618Z,26.11
2022-08-02T18:33:57.307Z,25.99
2022-08-02T18:36:03.046Z,25.86
2022-08-02T18:38:31.538Z,25.44
2022-08-02T18:41:02.827Z,25.26
2022-08-02T18:43:31.563Z,25.30
2022-08-02T18:46:15.321Z,25.25
2022-08-02T18:48:47.776Z,24.98
2022-08-02T18:51:18.642Z,24.97
2022-08-02T18:53:51.228Z,24.86
2022-08-02T18:56:24.612Z,25.00
2022-08-02T18:58:52.973Z,25.02
2022-08-02T19:01:31.371Z,25.01
2022-08-02T19:04:04.240Z,24.91
2022-08-02T19:06:32.762Z,24.87
2022-08-02T19:09:11.152Z,24.82
2022-08-02T19:11:47.267Z,24.79
2022-08-02T19:14:19.017Z,24.77
2022-08-02T19:16:52.380Z,24.67
2022-08-02T19:19:22.296Z,24.61
2022-08-02T19:22:18.229Z,24.54
2022-08-02T19:24:38.299Z,24.47
2022-08-02T19:27:13.774Z,24.41
2022-08-02T19:29:48.691Z,24.28
2022-08-02T19:32:42.674Z,24.27
2022-08-02T19:35:19.386Z,24.22
2022-08-02T19:37:59.196Z,24.16
2022-08-02T19:40:29.117Z,24.09
2022-08-02T19:44:24.599Z,24.07
2022-08-02T19:45:49.931Z,23.96
2022-08-02T19:48:23.464Z,23.84
2022-08-02T19:50:56.044Z,23.75
2022-08-02T19:53:29.063Z,23.66
2022-08-02T19:56:12.854Z,23.64
2022-08-02T19:58:48.851Z,23.58
2022-08-02T20:01:19.404Z,23.54
2022-08-02T20:03:52.357Z,23.51
2022-08-02T20:06:29.958Z,23.45
2022-08-02T20:09:01.137Z,23.43
2022-08-02T20:11:34.770Z,23.39
2022-08-02T20:14:04.354Z,23.40
2022-08-02T20:16:33.150Z,23.34
2022-08-02T20:19:01.517Z,23.33
2022-08-02T20:21:36.622Z,23.27
2022-08-02T20:24:07.646Z,23.21
2022-08-02T20:26:35.863Z,23.20
2022-08-02T20:29:06.567Z,23.18
2022-08-02T20:31:36.337Z,23.14
2022-08-02T20:34:05.662Z,23.08
2022-08-02T20:36:36.729Z,23.07
2022-08-02T20:39:05.517Z,23.07
2022-08-02T20:41:37.184Z,23.13
2022-08-02T20:44:15.522Z,23.15
2022-08-02T20:46:59.170Z,23.12
2022-08-02T20:49:40.966Z,23.18
2022-08-02T20:52:23.377Z,23.20
2022-08-02T20:54:52.865Z,23.20
2022-08-02T20:57:36.234Z,23.23
2022-08-02T21:00:11.781Z,23.24
2022-08-02T21:02:40.026Z,23.31
2022-08-02T21:05:17.313Z,23.33
2022-08-02T21:07:53.542Z,23.34
2022-08-02T21:10:23.951Z,23.40
2022-08-02T21:12:52.399Z,23.38
2022-08-02T21:15:20.719Z,23.32
2022-08-02T21:17:52.638Z,23.25
2022-08-02T21:20:27.327Z,23.25
2022-08-02T21:22:58.564Z,23.22
2022-08-02T21:25:42.749Z,23.31
2022-08-02T21:28:17.720Z,23.36
2022-08-02T21:30:46.510Z,23.45
2022-08-02T21:33:22.436Z,23.51
2022-08-02T21:35:52.342Z,23.42
2022-08-02T21:38:36.530Z,23.44
2022-08-02T21:41:11.118Z,23.40
2022-08-02T21:43:40.538Z,23.36
2022-08-02T21:46:14.557Z,23.33
2022-08-02T21:48:42.917Z,23.30
2022-08-02T21:51:15.906Z,23.24
2022-08-02T21:54:18.304Z,23.20
2022-08-02T21:56:33.469Z,23.14
2022-08-02T21:59:01.771Z,23.15
2022-08-02T22:01:52.773Z,23.04
2022-08-02T22:04:21.330Z,23.10
2022-08-02T22:06:49.486Z,23.12
2022-08-02T22:09:43.340Z,23.15
2022-08-02T22:12:10.053Z,23.13
2022-08-02T22:14:41.070Z,23.14
2022-08-02T22:17:13.536Z,23.08
2022-08-02T22:19:51.153Z,23.10
2022-08-02T22:22:28.051Z,23.12
2022-08-02T22:24:58.161Z,23.10
2022-08-02T22:30:16.578Z,22.83
2022-08-02T22:33:15.071Z,22.85
2022-08-02T22:35:43.490Z,22.76
2022-08-02T22:38:17.660Z,22.74
2022-08-02T22:40:48.627Z,22.87
2022-08-02T22:43:22.930Z,22.93
2022-08-02T22:45:51.525Z,23.12
2022-08-02T22:48:20.457Z,23.20
2022-08-02T22:50:48.722Z,23.16
2022-08-02T22:53:18.308Z,23.29
2022-08-02T22:55:54.234Z,23.34
2022-08-02T22:58:23.086Z,23.38
2022-08-02T22:59:04.975Z,22.94
2022-08-02T23:00:51.082Z,23.32
2022-08-02T23:03:19.106Z,23.32
2022-08-02T23:05:47.426Z,23.34
2022-08-02T23:08:15.437Z,23.39
2022-08-02T23:10:43.511Z,23.22
2022-08-02T23:13:13.143Z,23.30
2022-08-02T23:15:59.462Z,23.41
2022-08-02T23:18:45.397Z,23.25
2022-08-02T23:21:13.414Z,23.24
2022-08-02T23:23:55.665Z,23.38
2022-08-02T23:26:23.674Z,23.42
2022-08-02T23:28:53.077Z,23.36
2022-08-02T23:31:38.122Z,23.39
2022-08-02T23:34:06.986Z,23.37
2022-08-02T23:36:35.211Z,23.33
2022-08-02T23:39:03.248Z,23.34
2022-08-02T23:41:31.247Z,23.35
2022-08-02T23:44:13.088Z,23.29
2022-08-02T23:46:43.181Z,23.23
2022-08-02T23:49:12.187Z,23.24
2022-08-02T23:51:40.357Z,23.13
2022-08-02T23:54:08.604Z,23.12
2022-08-02T23:56:36.672Z,23.14
2022-08-02T23:59:07.817Z,23.10
